sensor_id;sensor_type;location;lat;lon;timestamp;P1;durP1;ratioP1;P2;durP2;ratioP2
67528;SDS011;54366;51.980;5.856;2022-10-17T00:01:48;5.75;;;5.15;;
67528;SDS011;54366;51.980;5.856;2022-10-17T00:04:14;6.57;;;5.88;;
67528;SDS011;54366;51.980;5.856;2022-10-17T00:06:40;5.03;;;4.55;;
67528;SDS011;54366;51.980;5.856;2022-10-17T00:09:06;6.18;;;5.57;;
67528;SDS011;54366;51.980;5.856;2022-10-17T00:11:34;5.57;;;4.47;;
67528;SDS011;54366;51.980;5.856;2022-10-17T00:14:01;5.05;;;4.65;;
67528;SDS011;54366;51.980;5.856;2022-10-17T00:16:28;4.90;;;4.50;;
67528;SDS011;54366;51.980;5.856;2022-10-17T00:18:57;8.20;;;5.00;;
67528;SDS011;54366;51.980;5.856;2022-10-17T00:21:23;4.97;;;4.47;;
67528;SDS011;54366;51.980;5.856;2022-10-17T00:23:50;5.57;;;5.00;;
67528;SDS011;54366;51.980;5.856;2022-10-17T00:26:17;5.20;;;4.70;;
67528;SDS011;54366;51.980;5.856;2022-10-17T00:28:47;5.30;;;4.82;;
67528;SDS011;54366;51.980;5.856;2022-10-17T00:31:15;4.93;;;4.53;;
67528;SDS011;54366;51.980;5.856;2022-10-17T00:33:43;4.55;;;4.15;;
67528;SDS011;54366;51.980;5.856;2022-10-17T00:36:11;5.00;;;4.53;;
67528;SDS011;54366;51.980;5.856;2022-10-17T00:38:43;5.43;;;4.93;;
67528;SDS011;54366;51.980;5.856;2022-10-17T00:41:12;4.05;;;3.75;;
67528;SDS011;54366;51.980;5.856;2022-10-17T00:43:56;4.13;;;3.72;;
67528;SDS011;54366;51.980;5.856;2022-10-17T00:46:27;4.28;;;3.85;;
67528;SDS011;54366;51.980;5.856;2022-10-17T00:49:07;5.25;;;4.75;;
67528;SDS011;54366;51.980;5.856;2022-10-17T00:51:38;4.80;;;4.30;;
67528;SDS011;54366;51.980;5.856;2022-10-17T00:54:18;5.05;;;3.83;;
67528;SDS011;54366;51.980;5.856;2022-10-17T00:56:48;4.40;;;4.00;;
67528;SDS011;54366;51.980;5.856;2022-10-17T00:59:16;4.90;;;4.40;;
67528;SDS011;54366;51.980;5.856;2022-10-17T01:01:55;5.35;;;4.43;;
67528;SDS011;54366;51.980;5.856;2022-10-17T01:04:25;6.50;;;5.53;;
67528;SDS011;54366;51.980;5.856;2022-10-17T01:06:52;4.72;;;4.30;;
67528;SDS011;54366;51.980;5.856;2022-10-17T01:09:18;5.20;;;3.97;;
67528;SDS011;54366;51.980;5.856;2022-10-17T01:11:49;4.57;;;4.18;;
67528;SDS011;54366;51.980;5.856;2022-10-17T01:22:39;5.78;;;5.20;;
67528;SDS011;54366;51.980;5.856;2022-10-17T01:39:11;6.90;;;6.18;;
67528;SDS011;54366;51.980;5.856;2022-10-17T01:41:55;6.45;;;5.53;;
67528;SDS011;54366;51.980;5.856;2022-10-17T01:44:47;5.50;;;4.95;;
67528;SDS011;54366;51.980;5.856;2022-10-17T01:47:19;5.30;;;4.80;;
67528;SDS011;54366;51.980;5.856;2022-10-17T01:49:49;6.72;;;5.95;;
67528;SDS011;54366;51.980;5.856;2022-10-17T01:52:29;4.82;;;4.43;;
67528;SDS011;54366;51.980;5.856;2022-10-17T01:55:08;8.23;;;7.30;;
67528;SDS011;54366;51.980;5.856;2022-10-17T02:00:12;5.47;;;4.30;;
67528;SDS011;54366;51.980;5.856;2022-10-17T02:02:42;6.10;;;5.10;;
67528;SDS011;54366;51.980;5.856;2022-10-17T02:05:09;6.32;;;5.72;;
67528;SDS011;54366;51.980;5.856;2022-10-17T02:07:35;5.45;;;4.93;;
67528;SDS011;54366;51.980;5.856;2022-10-17T02:10:03;4.68;;;4.25;;
67528;SDS011;54366;51.980;5.856;2022-10-17T02:12:44;5.00;;;4.55;;
67528;SDS011;54366;51.980;5.856;2022-10-17T02:20:49;6.38;;;5.72;;
67528;SDS011;54366;51.980;5.856;2022-10-17T02:26:09;6.30;;;5.80;;
67528;SDS011;54366;51.980;5.856;2022-10-17T02:28:53;5.95;;;5.45;;
67528;SDS011;54366;51.980;5.856;2022-10-17T02:31:47;6.13;;;5.53;;
67528;SDS011;54366;51.980;5.856;2022-10-17T02:34:26;5.03;;;4.63;;
67528;SDS011;54366;51.980;5.856;2022-10-17T02:37:01;5.65;;;5.15;;
67528;SDS011;54366;51.980;5.856;2022-10-17T02:39:32;7.22;;;5.68;;
67528;SDS011;54366;51.980;5.856;2022-10-17T02:42:01;4.93;;;4.53;;
67528;SDS011;54366;51.980;5.856;2022-10-17T02:44:30;4.15;;;3.85;;
67528;SDS011;54366;51.980;5.856;2022-10-17T02:47:00;4.82;;;4.43;;
67528;SDS011;54366;51.980;5.856;2022-10-17T02:49:37;5.72;;;5.20;;
67528;SDS011;54366;51.980;5.856;2022-10-17T02:52:08;7.25;;;6.63;;
67528;SDS011;54366;51.980;5.856;2022-10-17T02:54:53;5.88;;;5.28;;
67528;SDS011;54366;51.980;5.856;2022-10-17T02:57:37;5.07;;;4.68;;
67528;SDS011;54366;51.980;5.856;2022-10-17T03:00:08;5.00;;;4.50;;
67528;SDS011;54366;51.980;5.856;2022-10-17T03:02:40;5.00;;;4.50;;
67528;SDS011;54366;51.980;5.856;2022-10-17T03:05:09;5.60;;;5.10;;
67528;SDS011;54366;51.980;5.856;2022-10-17T03:07:37;5.57;;;5.07;;
67528;SDS011;54366;51.980;5.856;2022-10-17T03:10:03;5.75;;;5.15;;
67528;SDS011;54366;51.980;5.856;2022-10-17T03:12:30;4.30;;;3.90;;
67528;SDS011;54366;51.980;5.856;2022-10-17T03:14:57;4.35;;;3.95;;
67528;SDS011;54366;51.980;5.856;2022-10-17T03:17:23;5.15;;;4.68;;
67528;SDS011;54366;51.980;5.856;2022-10-17T03:19:49;4.32;;;4.03;;
67528;SDS011;54366;51.980;5.856;2022-10-17T03:22:15;5.03;;;4.10;;
67528;SDS011;54366;51.980;5.856;2022-10-17T03:24:44;4.20;;;3.83;;
67528;SDS011;54366;51.980;5.856;2022-10-17T03:27:10;3.47;;;3.15;;
67528;SDS011;54366;51.980;5.856;2022-10-17T03:29:37;3.53;;;3.22;;
67528;SDS011;54366;51.980;5.856;2022-10-17T03:32:06;5.18;;;4.10;;
67528;SDS011;54366;51.980;5.856;2022-10-17T03:34:32;6.82;;;6.20;;
67528;SDS011;54366;51.980;5.856;2022-10-17T03:36:58;5.22;;;4.75;;
67528;SDS011;54366;51.980;5.856;2022-10-17T03:39:27;5.22;;;4.82;;
67528;SDS011;54366;51.980;5.856;2022-10-17T03:41:53;4.13;;;3.83;;
67528;SDS011;54366;51.980;5.856;2022-10-17T03:44:19;4.45;;;4.15;;
67528;SDS011;54366;51.980;5.856;2022-10-17T03:46:45;4.40;;;4.05;;
67528;SDS011;54366;51.980;5.856;2022-10-17T03:49:12;6.05;;;4.50;;
67528;SDS011;54366;51.980;5.856;2022-10-17T03:51:38;4.05;;;3.75;;
67528;SDS011;54366;51.980;5.856;2022-10-17T03:54:10;4.07;;;3.78;;
67528;SDS011;54366;51.980;5.856;2022-10-17T03:56:36;3.85;;;3.55;;
67528;SDS011;54366;51.980;5.856;2022-10-17T03:59:06;3.92;;;3.63;;
67528;SDS011;54366;51.980;5.856;2022-10-17T04:01:37;5.80;;;5.30;;
67528;SDS011;54366;51.980;5.856;2022-10-17T04:04:04;3.42;;;3.17;;
67528;SDS011;54366;51.980;5.856;2022-10-17T04:06:33;3.78;;;3.47;;
67528;SDS011;54366;51.980;5.856;2022-10-17T04:09:00;4.20;;;3.90;;
67528;SDS011;54366;51.980;5.856;2022-10-17T04:11:35;3.97;;;3.67;;
67528;SDS011;54366;51.980;5.856;2022-10-17T04:14:02;3.72;;;3.50;;
67528;SDS011;54366;51.980;5.856;2022-10-17T04:16:29;3.53;;;3.22;;
67528;SDS011;54366;51.980;5.856;2022-10-17T04:18:59;4.32;;;4.03;;
67528;SDS011;54366;51.980;5.856;2022-10-17T04:21:29;5.50;;;5.00;;
67528;SDS011;54366;51.980;5.856;2022-10-17T04:24:00;4.80;;;4.40;;
67528;SDS011;54366;51.980;5.856;2022-10-17T04:29:13;4.88;;;4.03;;
67528;SDS011;54366;51.980;5.856;2022-10-17T04:31:42;5.20;;;3.97;;
67528;SDS011;54366;51.980;5.856;2022-10-17T04:34:17;4.45;;;4.03;;
67528;SDS011;54366;51.980;5.856;2022-10-17T04:36:43;3.38;;;3.08;;
67528;SDS011;54366;51.980;5.856;2022-10-17T04:39:12;3.03;;;2.75;;
67528;SDS011;54366;51.980;5.856;2022-10-17T04:41:39;3.60;;;3.30;;
67528;SDS011;54366;51.980;5.856;2022-10-17T04:44:06;3.72;;;3.42;;
67528;SDS011;54366;51.980;5.856;2022-10-17T04:46:37;4.80;;;4.40;;
67528;SDS011;54366;51.980;5.856;2022-10-17T04:49:04;4.28;;;3.97;;
67528;SDS011;54366;51.980;5.856;2022-10-17T04:51:31;3.55;;;3.35;;
67528;SDS011;54366;51.980;5.856;2022-10-17T04:54:19;3.85;;;3.47;;
67528;SDS011;54366;51.980;5.856;2022-10-17T04:56:50;4.03;;;3.60;;
67528;SDS011;54366;51.980;5.856;2022-10-17T04:59:17;4.00;;;3.70;;
67528;SDS011;54366;51.980;5.856;2022-10-17T05:01:47;4.22;;;3.92;;
67528;SDS011;54366;51.980;5.856;2022-10-17T05:04:14;3.70;;;3.40;;
67528;SDS011;54366;51.980;5.856;2022-10-17T05:06:40;3.92;;;3.58;;
67528;SDS011;54366;51.980;5.856;2022-10-17T05:09:21;3.75;;;3.47;;
67528;SDS011;54366;51.980;5.856;2022-10-17T05:11:47;4.00;;;3.70;;
67528;SDS011;54366;51.980;5.856;2022-10-17T05:14:14;4.30;;;3.53;;
67528;SDS011;54366;51.980;5.856;2022-10-17T05:16:40;5.72;;;3.33;;
67528;SDS011;54366;51.980;5.856;2022-10-17T05:19:07;4.07;;;3.60;;
67528;SDS011;54366;51.980;5.856;2022-10-17T05:21:39;4.03;;;3.63;;
67528;SDS011;54366;51.980;5.856;2022-10-17T05:24:07;3.15;;;2.92;;
67528;SDS011;54366;51.980;5.856;2022-10-17T05:26:34;3.60;;;3.33;;
67528;SDS011;54366;51.980;5.856;2022-10-17T05:29:01;3.17;;;2.97;;
67528;SDS011;54366;51.980;5.856;2022-10-17T05:31:30;3.30;;;3.10;;
67528;SDS011;54366;51.980;5.856;2022-10-17T05:34:00;4.40;;;4.00;;
67528;SDS011;54366;51.980;5.856;2022-10-17T05:36:30;3.47;;;3.28;;
67528;SDS011;54366;51.980;5.856;2022-10-17T05:38:58;3.40;;;3.20;;
67528;SDS011;54366;51.980;5.856;2022-10-17T05:41:26;3.47;;;3.20;;
67528;SDS011;54366;51.980;5.856;2022-10-17T05:43:52;3.35;;;2.90;;
67528;SDS011;54366;51.980;5.856;2022-10-17T05:46:27;3.30;;;3.00;;
67528;SDS011;54366;51.980;5.856;2022-10-17T05:48:54;3.10;;;2.80;;
67528;SDS011;54366;51.980;5.856;2022-10-17T05:51:20;2.80;;;2.55;;
67528;SDS011;54366;51.980;5.856;2022-10-17T05:53:47;3.45;;;3.20;;
67528;SDS011;54366;51.980;5.856;2022-10-17T05:56:20;4.05;;;3.58;;
67528;SDS011;54366;51.980;5.856;2022-10-17T05:58:47;4.15;;;3.85;;
67528;SDS011;54366;51.980;5.856;2022-10-17T06:01:25;3.88;;;3.58;;
67528;SDS011;54366;51.980;5.856;2022-10-17T06:03:52;4.70;;;4.10;;
67528;SDS011;54366;51.980;5.856;2022-10-17T06:06:18;4.50;;;3.40;;
67528;SDS011;54366;51.980;5.856;2022-10-17T06:08:46;4.13;;;3.72;;
67528;SDS011;54366;51.980;5.856;2022-10-17T06:11:16;3.63;;;3.33;;
67528;SDS011;54366;51.980;5.856;2022-10-17T06:13:43;3.65;;;3.35;;
67528;SDS011;54366;51.980;5.856;2022-10-17T06:16:14;3.63;;;3.33;;
67528;SDS011;54366;51.980;5.856;2022-10-17T06:18:40;3.42;;;3.13;;
67528;SDS011;54366;51.980;5.856;2022-10-17T06:21:07;4.32;;;3.92;;
67528;SDS011;54366;51.980;5.856;2022-10-17T06:23:39;5.18;;;4.68;;
67528;SDS011;54366;51.980;5.856;2022-10-17T06:26:12;4.60;;;4.20;;
67528;SDS011;54366;51.980;5.856;2022-10-17T06:28:39;4.22;;;3.83;;
67528;SDS011;54366;51.980;5.856;2022-10-17T06:31:06;3.65;;;3.33;;
67528;SDS011;54366;51.980;5.856;2022-10-17T06:33:34;4.05;;;3.65;;
67528;SDS011;54366;51.980;5.856;2022-10-17T06:36:03;3.90;;;2.97;;
67528;SDS011;54366;51.980;5.856;2022-10-17T06:38:31;3.53;;;3.22;;
67528;SDS011;54366;51.980;5.856;2022-10-17T06:41:11;4.32;;;3.83;;
67528;SDS011;54366;51.980;5.856;2022-10-17T06:43:39;5.45;;;4.40;;
67528;SDS011;54366;51.980;5.856;2022-10-17T06:46:31;3.78;;;3.47;;
67528;SDS011;54366;51.980;5.856;2022-10-17T06:49:03;4.07;;;3.60;;
67528;SDS011;54366;51.980;5.856;2022-10-17T06:52:02;4.80;;;4.40;;
67528;SDS011;54366;51.980;5.856;2022-10-17T06:54:39;3.70;;;3.40;;
67528;SDS011;54366;51.980;5.856;2022-10-17T06:57:17;6.20;;;5.60;;
67528;SDS011;54366;51.980;5.856;2022-10-17T07:00:03;4.15;;;3.80;;
67528;SDS011;54366;51.980;5.856;2022-10-17T07:02:38;4.40;;;3.95;;
67528;SDS011;54366;51.980;5.856;2022-10-17T07:05:04;4.30;;;3.90;;
67528;SDS011;54366;51.980;5.856;2022-10-17T07:07:33;3.42;;;3.13;;
67528;SDS011;54366;51.980;5.856;2022-10-17T07:10:00;4.10;;;3.70;;
67528;SDS011;54366;51.980;5.856;2022-10-17T07:12:26;3.80;;;3.42;;
67528;SDS011;54366;51.980;5.856;2022-10-17T07:14:52;6.25;;;5.60;;
67528;SDS011;54366;51.980;5.856;2022-10-17T07:17:18;5.30;;;4.80;;
67528;SDS011;54366;51.980;5.856;2022-10-17T07:19:46;4.18;;;3.88;;
67528;SDS011;54366;51.980;5.856;2022-10-17T07:22:12;3.58;;;3.28;;
67528;SDS011;54366;51.980;5.856;2022-10-17T07:24:42;4.45;;;4.05;;
67528;SDS011;54366;51.980;5.856;2022-10-17T07:27:19;4.85;;;4.43;;
67528;SDS011;54366;51.980;5.856;2022-10-17T07:29:46;4.35;;;3.95;;
67528;SDS011;54366;51.980;5.856;2022-10-17T07:32:30;4.30;;;3.90;;
67528;SDS011;54366;51.980;5.856;2022-10-17T07:34:58;5.43;;;4.90;;
67528;SDS011;54366;51.980;5.856;2022-10-17T07:37:24;5.30;;;4.80;;
67528;SDS011;54366;51.980;5.856;2022-10-17T07:39:54;5.78;;;5.20;;
67528;SDS011;54366;51.980;5.856;2022-10-17T07:42:21;4.05;;;3.75;;
67528;SDS011;54366;51.980;5.856;2022-10-17T07:44:49;3.80;;;3.50;;
67528;SDS011;54366;51.980;5.856;2022-10-17T07:47:16;3.83;;;3.50;;
67528;SDS011;54366;51.980;5.856;2022-10-17T07:49:43;3.53;;;3.22;;
67528;SDS011;54366;51.980;5.856;2022-10-17T07:52:10;3.38;;;3.08;;
67528;SDS011;54366;51.980;5.856;2022-10-17T07:54:37;4.57;;;3.42;;
67528;SDS011;54366;51.980;5.856;2022-10-17T07:57:04;3.22;;;2.92;;
67528;SDS011;54366;51.980;5.856;2022-10-17T07:59:34;3.08;;;2.88;;
67528;SDS011;54366;51.980;5.856;2022-10-17T08:02:02;3.95;;;3.55;;
67528;SDS011;54366;51.980;5.856;2022-10-17T08:04:29;3.85;;;3.55;;
67528;SDS011;54366;51.980;5.856;2022-10-17T08:06:55;3.85;;;3.45;;
67528;SDS011;54366;51.980;5.856;2022-10-17T08:09:22;7.45;;;5.68;;
67528;SDS011;54366;51.980;5.856;2022-10-17T08:11:48;6.05;;;5.30;;
67528;SDS011;54366;51.980;5.856;2022-10-17T08:14:14;6.18;;;5.43;;
67528;SDS011;54366;51.980;5.856;2022-10-17T08:16:41;9.10;;;6.32;;
67528;SDS011;54366;51.980;5.856;2022-10-17T08:19:08;7.55;;;6.35;;
67528;SDS011;54366;51.980;5.856;2022-10-17T08:21:36;6.25;;;5.63;;
67528;SDS011;54366;51.980;5.856;2022-10-17T08:24:02;7.03;;;6.03;;
67528;SDS011;54366;51.980;5.856;2022-10-17T08:26:29;6.00;;;5.40;;
67528;SDS011;54366;51.980;5.856;2022-10-17T08:28:55;9.40;;;6.55;;
67528;SDS011;54366;51.980;5.856;2022-10-17T08:31:22;6.93;;;6.25;;
67528;SDS011;54366;51.980;5.856;2022-10-17T08:33:48;9.30;;;6.90;;
67528;SDS011;54366;51.980;5.856;2022-10-17T08:36:16;6.68;;;5.82;;
67528;SDS011;54366;51.980;5.856;2022-10-17T08:38:43;6.13;;;5.53;;
67528;SDS011;54366;51.980;5.856;2022-10-17T08:41:12;5.63;;;4.75;;
67528;SDS011;54366;51.980;5.856;2022-10-17T08:46:40;3.85;;;3.50;;
67528;SDS011;54366;51.980;5.856;2022-10-17T08:49:13;8.63;;;5.97;;
67528;SDS011;54366;51.980;5.856;2022-10-17T08:51:48;4.38;;;3.97;;
67528;SDS011;54366;51.980;5.856;2022-10-17T08:54:19;5.90;;;4.80;;
67528;SDS011;54366;51.980;5.856;2022-10-17T08:56:52;4.90;;;4.50;;
67528;SDS011;54366;51.980;5.856;2022-10-17T08:59:27;5.28;;;4.63;;
67528;SDS011;54366;51.980;5.856;2022-10-17T09:02:00;8.45;;;5.72;;
67528;SDS011;54366;51.980;5.856;2022-10-17T09:13:14;3.20;;;3.00;;
67528;SDS011;54366;51.980;5.856;2022-10-17T09:18:38;4.72;;;4.13;;
67528;SDS011;54366;51.980;5.856;2022-10-17T09:23:52;4.90;;;4.20;;
67528;SDS011;54366;51.980;5.856;2022-10-17T09:26:23;4.32;;;3.92;;
67528;SDS011;54366;51.980;5.856;2022-10-17T09:28:51;4.15;;;3.17;;
67528;SDS011;54366;51.980;5.856;2022-10-17T09:31:21;2.92;;;2.72;;
67528;SDS011;54366;51.980;5.856;2022-10-17T09:33:50;3.83;;;3.42;;
67528;SDS011;54366;51.980;5.856;2022-10-17T09:36:28;3.40;;;3.10;;
67528;SDS011;54366;51.980;5.856;2022-10-17T09:39:00;3.67;;;2.97;;
67528;SDS011;54366;51.980;5.856;2022-10-17T09:41:41;3.85;;;2.70;;
67528;SDS011;54366;51.980;5.856;2022-10-17T09:46:37;3.78;;;3.38;;
67528;SDS011;54366;51.980;5.856;2022-10-17T09:49:08;4.53;;;3.83;;
67528;SDS011;54366;51.980;5.856;2022-10-17T09:51:42;4.10;;;3.60;;
67528;SDS011;54366;51.980;5.856;2022-10-17T09:54:15;3.03;;;2.72;;
67528;SDS011;54366;51.980;5.856;2022-10-17T09:56:55;2.53;;;2.33;;
67528;SDS011;54366;51.980;5.856;2022-10-17T09:59:34;3.83;;;3.30;;
67528;SDS011;54366;51.980;5.856;2022-10-17T10:04:53;3.60;;;3.30;;
67528;SDS011;54366;51.980;5.856;2022-10-17T10:07:29;3.50;;;3.20;;
67528;SDS011;54366;51.980;5.856;2022-10-17T10:10:00;2.95;;;2.75;;
67528;SDS011;54366;51.980;5.856;2022-10-17T10:12:32;2.47;;;2.28;;
67528;SDS011;54366;51.980;5.856;2022-10-17T10:15:01;2.08;;;1.98;;
67528;SDS011;54366;51.980;5.856;2022-10-17T10:17:47;2.22;;;2.03;;
67528;SDS011;54366;51.980;5.856;2022-10-17T10:20:24;2.83;;;2.63;;
67528;SDS011;54366;51.980;5.856;2022-10-17T10:23:04;4.22;;;2.85;;
67528;SDS011;54366;51.980;5.856;2022-10-17T10:25:36;2.85;;;2.65;;
67528;SDS011;54366;51.980;5.856;2022-10-17T10:28:08;3.50;;;3.20;;
67528;SDS011;54366;51.980;5.856;2022-10-17T10:30:36;2.50;;;2.30;;
67528;SDS011;54366;51.980;5.856;2022-10-17T10:33:02;2.83;;;2.40;;
67528;SDS011;54366;51.980;5.856;2022-10-17T10:35:33;3.05;;;2.85;;
67528;SDS011;54366;51.980;5.856;2022-10-17T10:38:02;2.60;;;2.38;;
67528;SDS011;54366;51.980;5.856;2022-10-17T10:40:35;2.78;;;2.50;;
67528;SDS011;54366;51.980;5.856;2022-10-17T10:43:18;2.80;;;2.50;;
67528;SDS011;54366;51.980;5.856;2022-10-17T10:45:56;2.88;;;2.67;;
67528;SDS011;54366;51.980;5.856;2022-10-17T10:48:26;2.70;;;2.45;;
67528;SDS011;54366;51.980;5.856;2022-10-17T10:51:10;3.20;;;2.90;;
67528;SDS011;54366;51.980;5.856;2022-10-17T10:56:30;3.17;;;2.47;;
67528;SDS011;54366;51.980;5.856;2022-10-17T10:59:07;2.80;;;2.50;;
67528;SDS011;54366;51.980;5.856;2022-10-17T11:01:53;2.67;;;2.47;;
67528;SDS011;54366;51.980;5.856;2022-10-17T11:04:51;3.08;;;2.78;;
67528;SDS011;54366;51.980;5.856;2022-10-17T11:07:34;3.05;;;2.80;;
67528;SDS011;54366;51.980;5.856;2022-10-17T11:10:08;3.03;;;2.50;;
67528;SDS011;54366;51.980;5.856;2022-10-17T11:12:47;3.03;;;2.30;;
67528;SDS011;54366;51.980;5.856;2022-10-17T11:15:27;2.58;;;2.33;;
67528;SDS011;54366;51.980;5.856;2022-10-17T11:23:24;2.15;;;2.05;;
67528;SDS011;54366;51.980;5.856;2022-10-17T11:25:52;2.45;;;2.25;;
67528;SDS011;54366;51.980;5.856;2022-10-17T11:28:22;2.80;;;2.60;;
67528;SDS011;54366;51.980;5.856;2022-10-17T11:33:26;2.70;;;2.40;;
67528;SDS011;54366;51.980;5.856;2022-10-17T11:36:08;2.05;;;1.88;;
67528;SDS011;54366;51.980;5.856;2022-10-17T11:38:40;2.38;;;2.25;;
67528;SDS011;54366;51.980;5.856;2022-10-17T11:41:14;2.75;;;2.40;;
67528;SDS011;54366;51.980;5.856;2022-10-17T11:43:49;2.75;;;2.50;;
67528;SDS011;54366;51.980;5.856;2022-10-17T11:46:20;2.90;;;2.60;;
67528;SDS011;54366;51.980;5.856;2022-10-17T11:51:23;2.50;;;2.30;;
67528;SDS011;54366;51.980;5.856;2022-10-17T11:53:53;3.00;;;2.78;;
67528;SDS011;54366;51.980;5.856;2022-10-17T11:56:24;3.70;;;3.40;;
67528;SDS011;54366;51.980;5.856;2022-10-17T11:59:16;3.85;;;3.55;;
67528;SDS011;54366;51.980;5.856;2022-10-17T12:01:53;3.63;;;3.33;;
67528;SDS011;54366;51.980;5.856;2022-10-17T12:10:15;3.65;;;3.38;;
67528;SDS011;54366;51.980;5.856;2022-10-17T12:12:44;3.40;;;3.10;;
67528;SDS011;54366;51.980;5.856;2022-10-17T12:17:36;3.90;;;3.50;;
67528;SDS011;54366;51.980;5.856;2022-10-17T12:25:46;4.53;;;4.13;;
67528;SDS011;54366;51.980;5.856;2022-10-17T12:57:56;5.53;;;4.57;;
67528;SDS011;54366;51.980;5.856;2022-10-17T13:00:51;5.10;;;4.70;;
67528;SDS011;54366;51.980;5.856;2022-10-17T13:03:21;3.72;;;3.42;;
67528;SDS011;54366;51.980;5.856;2022-10-17T13:05:54;4.28;;;3.88;;
67528;SDS011;54366;51.980;5.856;2022-10-17T13:08:27;4.40;;;4.00;;
67528;SDS011;54366;51.980;5.856;2022-10-17T13:10:56;4.50;;;4.10;;
67528;SDS011;54366;51.980;5.856;2022-10-17T13:16:07;3.75;;;3.35;;
67528;SDS011;54366;51.980;5.856;2022-10-17T13:18:34;3.65;;;3.30;;
67528;SDS011;54366;51.980;5.856;2022-10-17T13:23:34;5.28;;;4.88;;
67528;SDS011;54366;51.980;5.856;2022-10-17T13:26:15;3.83;;;3.53;;
67528;SDS011;54366;51.980;5.856;2022-10-17T13:28:59;4.85;;;4.45;;
67528;SDS011;54366;51.980;5.856;2022-10-17T13:31:31;5.30;;;4.78;;
67528;SDS011;54366;51.980;5.856;2022-10-17T13:34:01;4.80;;;4.40;;
67528;SDS011;54366;51.980;5.856;2022-10-17T13:36:29;4.18;;;3.78;;
67528;SDS011;54366;51.980;5.856;2022-10-17T13:39:04;3.65;;;3.35;;
67528;SDS011;54366;51.980;5.856;2022-10-17T13:41:33;6.05;;;5.45;;
67528;SDS011;54366;51.980;5.856;2022-10-17T13:44:00;4.53;;;4.13;;
67528;SDS011;54366;51.980;5.856;2022-10-17T13:46:29;4.57;;;4.20;;
67528;SDS011;54366;51.980;5.856;2022-10-17T13:48:57;4.80;;;4.40;;
67528;SDS011;54366;51.980;5.856;2022-10-17T13:51:26;4.40;;;4.10;;
67528;SDS011;54366;51.980;5.856;2022-10-17T13:53:52;5.95;;;4.55;;
67528;SDS011;54366;51.980;5.856;2022-10-17T13:56:28;4.38;;;3.97;;
67528;SDS011;54366;51.980;5.856;2022-10-17T13:58:56;3.42;;;3.22;;
67528;SDS011;54366;51.980;5.856;2022-10-17T14:01:28;5.47;;;4.03;;
67528;SDS011;54366;51.980;5.856;2022-10-17T14:03:55;5.82;;;4.55;;
67528;SDS011;54366;51.980;5.856;2022-10-17T14:06:28;5.03;;;4.43;;
67528;SDS011;54366;51.980;5.856;2022-10-17T14:08:59;4.25;;;3.95;;
67528;SDS011;54366;51.980;5.856;2022-10-17T14:11:35;4.63;;;4.30;;
67528;SDS011;54366;51.980;5.856;2022-10-17T14:14:06;5.18;;;4.78;;
67528;SDS011;54366;51.980;5.856;2022-10-17T14:16:47;5.40;;;4.82;;
67528;SDS011;54366;51.980;5.856;2022-10-17T14:19:24;4.07;;;3.78;;
67528;SDS011;54366;51.980;5.856;2022-10-17T14:24:42;4.80;;;4.50;;
67528;SDS011;54366;51.980;5.856;2022-10-17T14:29:56;6.65;;;6.05;;
67528;SDS011;54366;51.980;5.856;2022-10-17T14:32:28;6.30;;;5.68;;
67528;SDS011;54366;51.980;5.856;2022-10-17T14:34:57;5.10;;;4.70;;
67528;SDS011;54366;51.980;5.856;2022-10-17T14:37:35;5.57;;;5.07;;
67528;SDS011;54366;51.980;5.856;2022-10-17T14:40:16;5.25;;;4.85;;
67528;SDS011;54366;51.980;5.856;2022-10-17T14:42:48;7.78;;;6.95;;
67528;SDS011;54366;51.980;5.856;2022-10-17T14:45:29;5.43;;;4.93;;
67528;SDS011;54366;51.980;5.856;2022-10-17T14:48:08;3.55;;;3.30;;
67528;SDS011;54366;51.980;5.856;2022-10-17T14:53:40;3.85;;;3.55;;
67528;SDS011;54366;51.980;5.856;2022-10-17T14:56:21;4.18;;;3.88;;
67528;SDS011;54366;51.980;5.856;2022-10-17T14:58:50;5.00;;;4.60;;
67528;SDS011;54366;51.980;5.856;2022-10-17T15:01:16;5.35;;;4.85;;
67528;SDS011;54366;51.980;5.856;2022-10-17T15:03:43;5.22;;;4.72;;
67528;SDS011;54366;51.980;5.856;2022-10-17T15:06:23;5.20;;;4.78;;
67528;SDS011;54366;51.980;5.856;2022-10-17T15:08:53;5.73;;;5.17;;
67528;SDS011;54366;51.980;5.856;2022-10-17T15:11:19;7.65;;;6.78;;
67528;SDS011;54366;51.980;5.856;2022-10-17T15:13:45;6.13;;;5.63;;
67528;SDS011;54366;51.980;5.856;2022-10-17T15:16:19;4.97;;;4.57;;
67528;SDS011;54366;51.980;5.856;2022-10-17T15:18:46;4.57;;;4.18;;
67528;SDS011;54366;51.980;5.856;2022-10-17T15:21:13;4.20;;;3.90;;
67528;SDS011;54366;51.980;5.856;2022-10-17T15:23:41;5.30;;;4.90;;
67528;SDS011;54366;51.980;5.856;2022-10-17T15:26:16;4.95;;;4.55;;
67528;SDS011;54366;51.980;5.856;2022-10-17T15:28:50;5.68;;;5.18;;
67528;SDS011;54366;51.980;5.856;2022-10-17T15:31:18;6.32;;;5.82;;
67528;SDS011;54366;51.980;5.856;2022-10-17T15:33:46;5.95;;;5.45;;
67528;SDS011;54366;51.980;5.856;2022-10-17T15:36:26;4.80;;;4.40;;
67528;SDS011;54366;51.980;5.856;2022-10-17T15:39:13;5.18;;;4.78;;
67528;SDS011;54366;51.980;5.856;2022-10-17T15:41:39;6.93;;;6.32;;
67528;SDS011;54366;51.980;5.856;2022-10-17T15:44:06;6.22;;;5.68;;
67528;SDS011;54366;51.980;5.856;2022-10-17T15:46:33;6.90;;;6.30;;
67528;SDS011;54366;51.980;5.856;2022-10-17T15:49:00;6.88;;;6.32;;
67528;SDS011;54366;51.980;5.856;2022-10-17T15:51:29;6.63;;;6.13;;
67528;SDS011;54366;51.980;5.856;2022-10-17T15:53:55;7.53;;;6.85;;
67528;SDS011;54366;51.980;5.856;2022-10-17T15:56:25;7.43;;;6.88;;
67528;SDS011;54366;51.980;5.856;2022-10-17T15:58:54;7.80;;;7.30;;
67528;SDS011;54366;51.980;5.856;2022-10-17T16:01:21;9.25;;;8.45;;
67528;SDS011;54366;51.980;5.856;2022-10-17T16:03:52;6.63;;;6.13;;
67528;SDS011;54366;51.980;5.856;2022-10-17T16:06:19;6.88;;;6.28;;
67528;SDS011;54366;51.980;5.856;2022-10-17T16:08:46;8.23;;;7.50;;
67528;SDS011;54366;51.980;5.856;2022-10-17T16:13:48;9.10;;;8.40;;
67528;SDS011;54366;51.980;5.856;2022-10-17T16:16:17;7.93;;;7.13;;
67528;SDS011;54366;51.980;5.856;2022-10-17T16:18:43;8.32;;;7.63;;
67528;SDS011;54366;51.980;5.856;2022-10-17T16:21:12;8.65;;;7.95;;
67528;SDS011;54366;51.980;5.856;2022-10-17T16:23:40;9.25;;;8.52;;
67528;SDS011;54366;51.980;5.856;2022-10-17T16:26:07;8.50;;;7.70;;
67528;SDS011;54366;51.980;5.856;2022-10-17T16:28:34;8.10;;;7.47;;
67528;SDS011;54366;51.980;5.856;2022-10-17T16:31:00;8.95;;;8.15;;
67528;SDS011;54366;51.980;5.856;2022-10-17T16:33:27;9.98;;;8.98;;
67528;SDS011;54366;51.980;5.856;2022-10-17T16:35:53;9.85;;;9.05;;
67528;SDS011;54366;51.980;5.856;2022-10-17T16:38:19;8.73;;;8.02;;
67528;SDS011;54366;51.980;5.856;2022-10-17T16:40:45;9.30;;;8.50;;
67528;SDS011;54366;51.980;5.856;2022-10-17T16:43:12;10.48;;;9.57;;
67528;SDS011;54366;51.980;5.856;2022-10-17T16:45:38;9.27;;;8.48;;
67528;SDS011;54366;51.980;5.856;2022-10-17T16:48:05;9.63;;;8.73;;
67528;SDS011;54366;51.980;5.856;2022-10-17T16:50:31;8.80;;;8.15;;
67528;SDS011;54366;51.980;5.856;2022-10-17T16:53:00;10.55;;;9.55;;
67528;SDS011;54366;51.980;5.856;2022-10-17T16:55:27;11.00;;;10.10;;
67528;SDS011;54366;51.980;5.856;2022-10-17T16:57:53;10.27;;;9.40;;
67528;SDS011;54366;51.980;5.856;2022-10-17T17:00:20;9.18;;;8.48;;
67528;SDS011;54366;51.980;5.856;2022-10-17T17:02:46;8.63;;;7.93;;
67528;SDS011;54366;51.980;5.856;2022-10-17T17:05:12;7.88;;;7.28;;
67528;SDS011;54366;51.980;5.856;2022-10-17T17:07:39;8.60;;;7.82;;
67528;SDS011;54366;51.980;5.856;2022-10-17T17:10:05;8.30;;;7.60;;
67528;SDS011;54366;51.980;5.856;2022-10-17T17:12:32;8.60;;;7.90;;
67528;SDS011;54366;51.980;5.856;2022-10-17T17:14:59;7.53;;;6.93;;
67528;SDS011;54366;51.980;5.856;2022-10-17T17:17:26;9.45;;;8.65;;
67528;SDS011;54366;51.980;5.856;2022-10-17T17:19:52;9.60;;;8.75;;
67528;SDS011;54366;51.980;5.856;2022-10-17T17:22:20;8.27;;;7.47;;